sensor_id;sensor_type;location;lat;lon;timestamp;temperature;humidity
15359;DHT22;7779;49.596;11.070;2023-05-19T00:02:16;10.40;48.40
15359;DHT22;7779;49.596;11.070;2023-05-19T00:04:45;10.20;48.50
15359;DHT22;7779;49.596;11.070;2023-05-19T00:07:16;10.20;48.70
15359;DHT22;7779;49.596;11.070;2023-05-19T00:09:44;10.10;49.00
15359;DHT22;7779;49.596;11.070;2023-05-19T00:12:10;10.00;48.80
15359;DHT22;7779;49.596;11.070;2023-05-19T00:14:37;10.00;49.00
15359;DHT22;7779;49.596;11.070;2023-05-19T00:17:03;9.90;50.10
15359;DHT22;7779;49.596;11.070;2023-05-19T00:19:29;9.90;50.40
15359;DHT22;7779;49.596;11.070;2023-05-19T00:21:57;9.80;50.50
15359;DHT22;7779;49.596;11.070;2023-05-19T00:24:23;9.80;50.60
15359;DHT22;7779;49.596;11.070;2023-05-19T00:26:49;9.80;50.80
15359;DHT22;7779;49.596;11.070;2023-05-19T00:29:15;9.70;50.90
15359;DHT22;7779;49.596;11.070;2023-05-19T00:31:43;9.70;51.00
15359;DHT22;7779;49.596;11.070;2023-05-19T00:34:09;9.70;51.10
15359;DHT22;7779;49.596;11.070;2023-05-19T00:36:35;9.70;51.20
15359;DHT22;7779;49.596;11.070;2023-05-19T00:39:00;9.70;52.00
15359;DHT22;7779;49.596;11.070;2023-05-19T00:41:27;9.60;51.40
15359;DHT22;7779;49.596;11.070;2023-05-19T00:43:53;9.60;51.60
15359;DHT22;7779;49.596;11.070;2023-05-19T00:46:19;9.60;51.60
15359;DHT22;7779;49.596;11.070;2023-05-19T00:48:45;9.60;51.80
15359;DHT22;7779;49.596;11.070;2023-05-19T00:51:12;9.60;52.00
15359;DHT22;7779;49.596;11.070;2023-05-19T00:53:41;9.60;53.10
15359;DHT22;7779;49.596;11.070;2023-05-19T00:56:12;9.60;52.10
15359;DHT22;7779;49.596;11.070;2023-05-19T00:58:39;9.60;52.20
15359;DHT22;7779;49.596;11.070;2023-05-19T01:01:05;9.60;52.30
15359;DHT22;7779;49.596;11.070;2023-05-19T01:03:34;9.60;52.30
15359;DHT22;7779;49.596;11.070;2023-05-19T01:06:01;9.60;52.40
15359;DHT22;7779;49.596;11.070;2023-05-19T01:08:31;9.60;52.40
15359;DHT22;7779;49.596;11.070;2023-05-19T01:10:57;9.60;52.60
15359;DHT22;7779;49.596;11.070;2023-05-19T01:13:25;7.70;51.10
15359;DHT22;7779;49.596;11.070;2023-05-19T01:18:57;9.60;53.60
15359;DHT22;7779;49.596;11.070;2023-05-19T01:30:55;9.60;53.90
15359;DHT22;7779;49.596;11.070;2023-05-19T01:33:24;9.60;53.00
15359;DHT22;7779;49.596;11.070;2023-05-19T01:35:53;9.70;53.00
15359;DHT22;7779;49.596;11.070;2023-05-19T01:38:21;9.70;53.00
15359;DHT22;7779;49.596;11.070;2023-05-19T01:40:48;9.70;53.20
15359;DHT22;7779;49.596;11.070;2023-05-19T01:43:17;9.70;53.30
15359;DHT22;7779;49.596;11.070;2023-05-19T01:45:45;9.70;53.30
15359;DHT22;7779;49.596;11.070;2023-05-19T01:48:13;9.70;53.30
15359;DHT22;7779;49.596;11.070;2023-05-19T01:50:40;9.80;53.50
15359;DHT22;7779;49.596;11.070;2023-05-19T01:53:07;9.80;53.50
15359;DHT22;7779;49.596;11.070;2023-05-19T01:55:35;9.90;53.60
15359;DHT22;7779;49.596;11.070;2023-05-19T02:01:33;10.10;53.10
15359;DHT22;7779;49.596;11.070;2023-05-19T02:07:36;10.20;53.40
15359;DHT22;7779;49.596;11.070;2023-05-19T02:10:22;10.30;53.30
15359;DHT22;7779;49.596;11.070;2023-05-19T02:12:53;10.40;53.10
15359;DHT22;7779;49.596;11.070;2023-05-19T02:15:29;10.50;52.60
15359;DHT22;7779;49.596;11.070;2023-05-19T02:18:03;10.50;52.60
15359;DHT22;7779;49.596;11.070;2023-05-19T02:20:30;10.60;52.50
15359;DHT22;7779;49.596;11.070;2023-05-19T02:22:56;10.60;52.40
15359;DHT22;7779;49.596;11.070;2023-05-19T02:25:22;10.70;52.50
15359;DHT22;7779;49.596;11.070;2023-05-19T02:27:49;10.70;52.50
15359;DHT22;7779;49.596;11.070;2023-05-19T02:30:17;10.80;52.40
15359;DHT22;7779;49.596;11.070;2023-05-19T02:32:42;10.90;52.50
15359;DHT22;7779;49.596;11.070;2023-05-19T02:35:11;10.90;52.30
15359;DHT22;7779;49.596;11.070;2023-05-19T02:37:38;11.00;52.40
15359;DHT22;7779;49.596;11.070;2023-05-19T02:40:05;11.10;52.40
15359;DHT22;7779;49.596;11.070;2023-05-19T02:42:31;11.10;52.30
15359;DHT22;7779;49.596;11.070;2023-05-19T02:44:57;11.10;52.30
15359;DHT22;7779;49.596;11.070;2023-05-19T02:47:24;11.20;52.40
15359;DHT22;7779;49.596;11.070;2023-05-19T02:49:50;11.30;52.30
15359;DHT22;7779;49.596;11.070;2023-05-19T02:52:15;11.30;52.20
15359;DHT22;7779;49.596;11.070;2023-05-19T02:54:41;11.40;52.20
15359;DHT22;7779;49.596;11.070;2023-05-19T02:57:07;11.40;52.10
15359;DHT22;7779;49.596;11.070;2023-05-19T02:59:33;11.50;52.00
15359;DHT22;7779;49.596;11.070;2023-05-19T03:02:00;11.60;52.00
15359;DHT22;7779;49.596;11.070;2023-05-19T03:04:27;11.60;52.00
15359;DHT22;7779;49.596;11.070;2023-05-19T03:06:54;11.70;52.00
15359;DHT22;7779;49.596;11.070;2023-05-19T03:09:19;11.70;51.80
15359;DHT22;7779;49.596;11.070;2023-05-19T03:11:45;11.80;51.80
15359;DHT22;7779;49.596;11.070;2023-05-19T03:14:11;11.80;51.70
15359;DHT22;7779;49.596;11.070;2023-05-19T03:16:38;11.90;51.80
15359;DHT22;7779;49.596;11.070;2023-05-19T03:19:08;12.00;51.70
15359;DHT22;7779;49.596;11.070;2023-05-19T03:21:34;12.00;51.60
15359;DHT22;7779;49.596;11.070;2023-05-19T03:24:00;12.00;51.50
15359;DHT22;7779;49.596;11.070;2023-05-19T03:26:26;12.10;51.60
15359;DHT22;7779;49.596;11.070;2023-05-19T03:28:54;12.00;51.40
15359;DHT22;7779;49.596;11.070;2023-05-19T03:31:20;12.10;51.40
15359;DHT22;7779;49.596;11.070;2023-05-19T03:33:46;12.10;51.40
15359;DHT22;7779;49.596;11.070;2023-05-19T03:36:12;12.10;51.40
15359;DHT22;7779;49.596;11.070;2023-05-19T03:38:38;12.20;51.40
15359;DHT22;7779;49.596;11.070;2023-05-19T03:41:04;12.20;51.40
15359;DHT22;7779;49.596;11.070;2023-05-19T03:43:30;12.20;51.30
15359;DHT22;7779;49.596;11.070;2023-05-19T03:46:00;12.20;51.20
15359;DHT22;7779;49.596;11.070;2023-05-19T03:48:52;12.30;51.20
15359;DHT22;7779;49.596;11.070;2023-05-19T03:51:30;12.30;51.10
15359;DHT22;7779;49.596;11.070;2023-05-19T03:54:04;12.30;51.10
15359;DHT22;7779;49.596;11.070;2023-05-19T03:56:30;12.40;51.20
15359;DHT22;7779;49.596;11.070;2023-05-19T03:58:57;12.40;51.10
15359;DHT22;7779;49.596;11.070;2023-05-19T04:01:23;12.40;51.10
15359;DHT22;7779;49.596;11.070;2023-05-19T04:03:49;12.40;51.00
15359;DHT22;7779;49.596;11.070;2023-05-19T04:06:15;12.50;51.10
15359;DHT22;7779;49.596;11.070;2023-05-19T04:08:41;12.50;51.10
15359;DHT22;7779;49.596;11.070;2023-05-19T04:11:08;12.50;51.10
15359;DHT22;7779;49.596;11.070;2023-05-19T04:13:34;12.50;51.10
15359;DHT22;7779;49.596;11.070;2023-05-19T04:16:00;12.60;51.10
15359;DHT22;7779;49.596;11.070;2023-05-19T04:18:26;12.50;50.90
15359;DHT22;7779;49.596;11.070;2023-05-19T04:20:51;12.60;51.00
15359;DHT22;7779;49.596;11.070;2023-05-19T04:23:18;12.60;51.00
15359;DHT22;7779;49.596;11.070;2023-05-19T04:25:44;12.60;51.00
15359;DHT22;7779;49.596;11.070;2023-05-19T04:28:10;12.70;51.10
15359;DHT22;7779;49.596;11.070;2023-05-19T04:30:35;12.70;51.10
15359;DHT22;7779;49.596;11.070;2023-05-19T04:33:02;12.70;51.10
15359;DHT22;7779;49.596;11.070;2023-05-19T04:35:29;12.70;51.10
15359;DHT22;7779;49.596;11.070;2023-05-19T04:37:56;12.80;51.10
15359;DHT22;7779;49.596;11.070;2023-05-19T04:40:27;12.80;51.10
15359;DHT22;7779;49.596;11.070;2023-05-19T04:42:55;12.80;51.10
15359;DHT22;7779;49.596;11.070;2023-05-19T04:45:22;12.90;51.20
15359;DHT22;7779;49.596;11.070;2023-05-19T04:47:52;12.90;51.10
15359;DHT22;7779;49.596;11.070;2023-05-19T04:50:22;12.90;51.10
15359;DHT22;7779;49.596;11.070;2023-05-19T04:52:49;13.00;51.20
15359;DHT22;7779;49.596;11.070;2023-05-19T04:55:15;13.00;51.20
15359;DHT22;7779;49.596;11.070;2023-05-19T04:57:41;13.10;51.30
15359;DHT22;7779;49.596;11.070;2023-05-19T05:00:08;13.10;51.30
15359;DHT22;7779;49.596;11.070;2023-05-19T05:02:45;13.20;51.30
15359;DHT22;7779;49.596;11.070;2023-05-19T05:05:11;13.20;51.90
15359;DHT22;7779;49.596;11.070;2023-05-19T05:07:37;13.30;51.40
15359;DHT22;7779;49.596;11.070;2023-05-19T05:10:03;13.40;51.30
15359;DHT22;7779;49.596;11.070;2023-05-19T05:12:29;13.40;51.40
15359;DHT22;7779;49.596;11.070;2023-05-19T05:14:55;13.50;51.30
15359;DHT22;7779;49.596;11.070;2023-05-19T05:17:22;13.60;51.30
15359;DHT22;7779;49.596;11.070;2023-05-19T05:19:50;13.60;51.30
15359;DHT22;7779;49.596;11.070;2023-05-19T05:22:16;13.70;51.40
15359;DHT22;7779;49.596;11.070;2023-05-19T05:24:42;13.70;51.30
15359;DHT22;7779;49.596;11.070;2023-05-19T05:27:08;13.80;51.20
15359;DHT22;7779;49.596;11.070;2023-05-19T05:29:35;13.90;51.20
15359;DHT22;7779;49.596;11.070;2023-05-19T05:32:03;13.90;51.20
15359;DHT22;7779;49.596;11.070;2023-05-19T05:34:29;13.90;50.70
15359;DHT22;7779;49.596;11.070;2023-05-19T05:36:55;14.00;51.10
15359;DHT22;7779;49.596;11.070;2023-05-19T05:39:21;14.10;51.20
15359;DHT22;7779;49.596;11.070;2023-05-19T05:41:47;14.10;51.10
15359;DHT22;7779;49.596;11.070;2023-05-19T05:44:13;14.10;50.60
15359;DHT22;7779;49.596;11.070;2023-05-19T05:46:42;14.20;51.20
15359;DHT22;7779;49.596;11.070;2023-05-19T05:49:08;14.20;51.00
15359;DHT22;7779;49.596;11.070;2023-05-19T05:51:38;14.30;51.00
15359;DHT22;7779;49.596;11.070;2023-05-19T05:54:06;14.30;50.90
15359;DHT22;7779;49.596;11.070;2023-05-19T05:56:39;14.40;50.90
15359;DHT22;7779;49.596;11.070;2023-05-19T05:59:07;14.40;50.80
15359;DHT22;7779;49.596;11.070;2023-05-19T06:01:33;14.40;50.80
15359;DHT22;7779;49.596;11.070;2023-05-19T06:04:00;14.50;50.90
15359;DHT22;7779;49.596;11.070;2023-05-19T06:06:26;14.50;50.80
15359;DHT22;7779;49.596;11.070;2023-05-19T06:08:52;14.50;50.70
15359;DHT22;7779;49.596;11.070;2023-05-19T06:11:18;14.50;50.60
15359;DHT22;7779;49.596;11.070;2023-05-19T06:13:44;14.60;50.70
15359;DHT22;7779;49.596;11.070;2023-05-19T06:16:17;14.60;50.70
15359;DHT22;7779;49.596;11.070;2023-05-19T06:18:46;14.70;50.70
15359;DHT22;7779;49.596;11.070;2023-05-19T06:21:12;14.70;50.70
15359;DHT22;7779;49.596;11.070;2023-05-19T06:23:39;14.70;50.60
15359;DHT22;7779;49.596;11.070;2023-05-19T06:26:08;14.80;50.70
15359;DHT22;7779;49.596;11.070;2023-05-19T06:28:34;14.90;50.90
15359;DHT22;7779;49.596;11.070;2023-05-19T06:31:00;14.90;50.80
15359;DHT22;7779;49.596;11.070;2023-05-19T06:33:42;15.00;50.80
15359;DHT22;7779;49.596;11.070;2023-05-19T06:36:08;15.10;50.80
15359;DHT22;7779;49.596;11.070;2023-05-19T06:38:36;15.20;50.80
15359;DHT22;7779;49.596;11.070;2023-05-19T06:41:02;15.30;50.70
15359;DHT22;7779;49.596;11.070;2023-05-19T06:43:28;15.30;50.60
15359;DHT22;7779;49.596;11.070;2023-05-19T06:45:56;15.40;50.50
15359;DHT22;7779;49.596;11.070;2023-05-19T06:48:24;15.50;50.60
15359;DHT22;7779;49.596;11.070;2023-05-19T06:50:50;15.50;50.00
15359;DHT22;7779;49.596;11.070;2023-05-19T06:53:18;15.60;50.50
15359;DHT22;7779;49.596;11.070;2023-05-19T06:55:45;15.80;50.50
15359;DHT22;7779;49.596;11.070;2023-05-19T06:58:15;15.90;50.50
15359;DHT22;7779;49.596;11.070;2023-05-19T07:00:41;16.00;50.50
15359;DHT22;7779;49.596;11.070;2023-05-19T07:03:09;16.10;50.50
15359;DHT22;7779;49.596;11.070;2023-05-19T07:05:36;16.20;50.40
15359;DHT22;7779;49.596;11.070;2023-05-19T07:08:03;16.30;50.30
15359;DHT22;7779;49.596;11.070;2023-05-19T07:10:30;16.40;50.30
15359;DHT22;7779;49.596;11.070;2023-05-19T07:12:56;16.50;50.40
15359;DHT22;7779;49.596;11.070;2023-05-19T07:15:25;16.60;50.30
15359;DHT22;7779;49.596;11.070;2023-05-19T07:17:51;16.70;50.30
15359;DHT22;7779;49.596;11.070;2023-05-19T07:20:17;17.80;51.10
15359;DHT22;7779;49.596;11.070;2023-05-19T07:22:43;16.90;50.10
15359;DHT22;7779;49.596;11.070;2023-05-19T07:25:09;17.00;50.00
15359;DHT22;7779;49.596;11.070;2023-05-19T07:27:35;17.10;50.00
15359;DHT22;7779;49.596;11.070;2023-05-19T07:30:01;17.20;50.00
15359;DHT22;7779;49.596;11.070;2023-05-19T07:32:28;17.40;50.00
15359;DHT22;7779;49.596;11.070;2023-05-19T07:34:54;17.40;49.90
15359;DHT22;7779;49.596;11.070;2023-05-19T07:37:19;17.50;49.80
15359;DHT22;7779;49.596;11.070;2023-05-19T07:39:45;17.60;49.60
15359;DHT22;7779;49.596;11.070;2023-05-19T07:42:11;17.70;49.50
15359;DHT22;7779;49.596;11.070;2023-05-19T07:44:36;17.90;49.50
15359;DHT22;7779;49.596;11.070;2023-05-19T07:47:02;18.00;49.40
15359;DHT22;7779;49.596;11.070;2023-05-19T07:49:28;18.10;49.30
15359;DHT22;7779;49.596;11.070;2023-05-19T07:51:54;18.20;49.30
15359;DHT22;7779;49.596;11.070;2023-05-19T07:54:19;18.30;49.30
15359;DHT22;7779;49.596;11.070;2023-05-19T07:56:45;18.40;49.10
15359;DHT22;7779;49.596;11.070;2023-05-19T07:59:13;18.60;49.00
15359;DHT22;7779;49.596;11.070;2023-05-19T08:01:39;18.70;48.80
15359;DHT22;7779;49.596;11.070;2023-05-19T08:04:05;18.80;48.40
15359;DHT22;7779;49.596;11.070;2023-05-19T08:06:31;18.80;48.10
15359;DHT22;7779;49.596;11.070;2023-05-19T08:08:56;18.80;47.70
15359;DHT22;7779;49.596;11.070;2023-05-19T08:11:22;18.90;47.50
15359;DHT22;7779;49.596;11.070;2023-05-19T08:13:48;18.90;47.50
15359;DHT22;7779;49.596;11.070;2023-05-19T08:16:14;18.90;47.50
15359;DHT22;7779;49.596;11.070;2023-05-19T08:18:40;18.90;47.40
15359;DHT22;7779;49.596;11.070;2023-05-19T08:21:06;18.90;47.60
15359;DHT22;7779;49.596;11.070;2023-05-19T08:23:32;19.00;47.20
15359;DHT22;7779;49.596;11.070;2023-05-19T08:25:58;19.00;47.70
15359;DHT22;7779;49.596;11.070;2023-05-19T08:28:24;19.10;47.60
15359;DHT22;7779;49.596;11.070;2023-05-19T08:30:50;19.10;47.50
15359;DHT22;7779;49.596;11.070;2023-05-19T08:33:18;19.20;47.60
15359;DHT22;7779;49.596;11.070;2023-05-19T08:35:46;19.30;47.40
15359;DHT22;7779;49.596;11.070;2023-05-19T08:38:12;19.30;47.20
15359;DHT22;7779;49.596;11.070;2023-05-19T08:40:40;19.30;46.80
15359;DHT22;7779;49.596;11.070;2023-05-19T08:43:07;19.30;46.40
15359;DHT22;7779;49.596;11.070;2023-05-19T08:45:33;19.30;46.40
15359;DHT22;7779;49.596;11.070;2023-05-19T08:47:59;19.30;46.30
15359;DHT22;7779;49.596;11.070;2023-05-19T08:50:34;19.20;46.10
15359;DHT22;7779;49.596;11.070;2023-05-19T08:53:19;19.20;45.70
15359;DHT22;7779;49.596;11.070;2023-05-19T08:56:00;19.10;45.90
15359;DHT22;7779;49.596;11.070;2023-05-19T08:58:30;19.10;45.90
15359;DHT22;7779;49.596;11.070;2023-05-19T09:00:56;19.10;46.20
15359;DHT22;7779;49.596;11.070;2023-05-19T09:03:24;19.10;46.10
15359;DHT22;7779;49.596;11.070;2023-05-19T09:05:53;19.10;46.20
15359;DHT22;7779;49.596;11.070;2023-05-19T09:08:18;19.10;46.20
15359;DHT22;7779;49.596;11.070;2023-05-19T09:10:44;19.10;46.30
15359;DHT22;7779;49.596;11.070;2023-05-19T09:13:10;19.10;46.30
15359;DHT22;7779;49.596;11.070;2023-05-19T09:15:38;19.10;46.30
15359;DHT22;7779;49.596;11.070;2023-05-19T09:18:10;19.10;46.20
15359;DHT22;7779;49.596;11.070;2023-05-19T09:20:38;19.20;46.20
15359;DHT22;7779;49.596;11.070;2023-05-19T09:23:06;19.20;46.20
15359;DHT22;7779;49.596;11.070;2023-05-19T09:25:32;19.30;46.40
15359;DHT22;7779;49.596;11.070;2023-05-19T09:27:58;19.30;46.20
15359;DHT22;7779;49.596;11.070;2023-05-19T09:30:24;19.30;46.10
15359;DHT22;7779;49.596;11.070;2023-05-19T09:32:50;19.40;46.10
15359;DHT22;7779;49.596;11.070;2023-05-19T09:35:16;19.40;46.00
15359;DHT22;7779;49.596;11.070;2023-05-19T09:37:44;19.50;46.00
15359;DHT22;7779;49.596;11.070;2023-05-19T09:40:13;19.60;46.20
15359;DHT22;7779;49.596;11.070;2023-05-19T09:42:40;19.80;46.40
15359;DHT22;7779;49.596;11.070;2023-05-19T09:45:08;19.90;46.60
15359;DHT22;7779;49.596;11.070;2023-05-19T09:47:35;20.10;46.40
15359;DHT22;7779;49.596;11.070;2023-05-19T09:50:09;20.20;46.10
15359;DHT22;7779;49.596;11.070;2023-05-19T09:52:37;20.30;45.80
15359;DHT22;7779;49.596;11.070;2023-05-19T09:55:04;20.40;45.80
15359;DHT22;7779;49.596;11.070;2023-05-19T09:57:34;20.50;45.70
15359;DHT22;7779;49.596;11.070;2023-05-19T10:00:08;20.50;45.20
15359;DHT22;7779;49.596;11.070;2023-05-19T10:02:45;20.60;44.80
15359;DHT22;7779;49.596;11.070;2023-05-19T10:05:13;20.60;44.80
15359;DHT22;7779;49.596;11.070;2023-05-19T10:07:49;20.60;44.70
15359;DHT22;7779;49.596;11.070;2023-05-19T10:10:17;20.60;44.40
15359;DHT22;7779;49.596;11.070;2023-05-19T10:12:49;20.60;44.40
15359;DHT22;7779;49.596;11.070;2023-05-19T10:15:16;20.60;44.40
15359;DHT22;7779;49.596;11.070;2023-05-19T10:17:43;20.60;44.30
15359;DHT22;7779;49.596;11.070;2023-05-19T10:20:11;20.60;44.30
15359;DHT22;7779;49.596;11.070;2023-05-19T10:22:39;20.50;44.50
15359;DHT22;7779;49.596;11.070;2023-05-19T10:25:07;20.60;44.70
15359;DHT22;7779;49.596;11.070;2023-05-19T10:27:41;20.70;44.60
15359;DHT22;7779;49.596;11.070;2023-05-19T10:30:15;20.80;44.40
15359;DHT22;7779;49.596;11.070;2023-05-19T10:32:44;20.80;44.50
15359;DHT22;7779;49.596;11.070;2023-05-19T10:44:08;21.20;44.00
15359;DHT22;7779;49.596;11.070;2023-05-19T10:46:39;21.20;43.70
15359;DHT22;7779;49.596;11.070;2023-05-19T10:49:07;21.20;43.80
15359;DHT22;7779;49.596;11.070;2023-05-19T10:51:33;21.20;43.70
15359;DHT22;7779;49.596;11.070;2023-05-19T10:54:07;21.20;43.80
15359;DHT22;7779;49.596;11.070;2023-05-19T10:56:38;21.30;43.80
15359;DHT22;7779;49.596;11.070;2023-05-19T10:59:06;21.40;43.60
15359;DHT22;7779;49.596;11.070;2023-05-19T11:01:52;21.40;43.40
15359;DHT22;7779;49.596;11.070;2023-05-19T11:04:18;21.50;42.40
15359;DHT22;7779;49.596;11.070;2023-05-19T11:07:03;21.50;43.40
15359;DHT22;7779;49.596;11.070;2023-05-19T11:09:29;21.50;43.10
15359;DHT22;7779;49.596;11.070;2023-05-19T11:12:01;21.50;43.00
15359;DHT22;7779;49.596;11.070;2023-05-19T11:14:28;21.50;42.90
15359;DHT22;7779;49.596;11.070;2023-05-19T11:16:57;21.50;43.30
15359;DHT22;7779;49.596;11.070;2023-05-19T11:19:32;21.70;43.30
15359;DHT22;7779;49.596;11.070;2023-05-19T11:22:10;21.70;42.70
15359;DHT22;7779;49.596;11.070;2023-05-19T11:27:27;21.70;42.80
15359;DHT22;7779;49.596;11.070;2023-05-19T11:30:17;21.80;42.60
15359;DHT22;7779;49.596;11.070;2023-05-19T11:32:46;21.90;43.00
15359;DHT22;7779;49.596;11.070;2023-05-19T11:35:12;21.90;42.50
15359;DHT22;7779;49.596;11.070;2023-05-19T11:37:39;21.90;42.40
15359;DHT22;7779;49.596;11.070;2023-05-19T11:40:07;21.90;42.30
15359;DHT22;7779;49.596;11.070;2023-05-19T11:42:34;21.90;42.20
15359;DHT22;7779;49.596;11.070;2023-05-19T11:45:01;21.90;42.20
15359;DHT22;7779;49.596;11.070;2023-05-19T11:47:30;21.90;42.20
15359;DHT22;7779;49.596;11.070;2023-05-19T11:49:57;21.90;42.20
15359;DHT22;7779;49.596;11.070;2023-05-19T11:52:24;21.90;42.20
15359;DHT22;7779;49.596;11.070;2023-05-19T11:54:52;22.00;40.80
15359;DHT22;7779;49.596;11.070;2023-05-19T11:57:18;22.00;42.20
15359;DHT22;7779;49.596;11.070;2023-05-19T11:59:44;22.10;42.30
15359;DHT22;7779;49.596;11.070;2023-05-19T12:02:24;22.20;42.30
15359;DHT22;7779;49.596;11.070;2023-05-19T12:04:52;22.20;42.20
15359;DHT22;7779;49.596;11.070;2023-05-19T12:07:20;22.20;42.10
15359;DHT22;7779;49.596;11.070;2023-05-19T12:09:49;22.30;42.10
15359;DHT22;7779;49.596;11.070;2023-05-19T12:12:20;22.40;41.80
15359;DHT22;7779;49.596;11.070;2023-05-19T12:14:48;22.40;41.60
15359;DHT22;7779;49.596;11.070;2023-05-19T12:17:17;22.30;41.50
15359;DHT22;7779;49.596;11.070;2023-05-19T12:19:45;22.40;41.50
15359;DHT22;7779;49.596;11.070;2023-05-19T12:22:12;22.40;41.00
15359;DHT22;7779;49.596;11.070;2023-05-19T12:24:40;22.40;41.60
15359;DHT22;7779;49.596;11.070;2023-05-19T12:29:42;22.40;41.20
15359;DHT22;7779;49.596;11.070;2023-05-19T12:32:14;22.50;41.30
15359;DHT22;7779;49.596;11.070;2023-05-19T12:34:40;22.50;41.20
15359;DHT22;7779;49.596;11.070;2023-05-19T12:37:07;22.50;41.20
15359;DHT22;7779;49.596;11.070;2023-05-19T12:39:36;22.50;41.10
15359;DHT22;7779;49.596;11.070;2023-05-19T12:42:11;22.50;41.10
15359;DHT22;7779;49.596;11.070;2023-05-19T12:44:43;22.40;40.30
15359;DHT22;7779;49.596;11.070;2023-05-19T12:47:11;22.40;40.50
15359;DHT22;7779;49.596;11.070;2023-05-19T12:50:02;22.40;40.80
15359;DHT22;7779;49.596;11.070;2023-05-19T12:52:47;22.40;40.20
15359;DHT22;7779;49.596;11.070;2023-05-19T12:55:16;22.40;39.90
15359;DHT22;7779;49.596;11.070;2023-05-19T12:57:50;22.40;40.90
15359;DHT22;7779;49.596;11.070;2023-05-19T13:00:22;22.40;40.60
15359;DHT22;7779;49.596;11.070;2023-05-19T13:03:04;22.40;40.90
15359;DHT22;7779;49.596;11.070;2023-05-19T13:05:33;22.40;40.60
15359;DHT22;7779;49.596;11.070;2023-05-19T13:08:06;22.50;40.80
15359;DHT22;7779;49.596;11.070;2023-05-19T13:10:35;22.50;40.60
15359;DHT22;7779;49.596;11.070;2023-05-19T13:13:02;22.60;40.90
15359;DHT22;7779;49.596;11.070;2023-05-19T13:15:30;22.70;41.10
15359;DHT22;7779;49.596;11.070;2023-05-19T13:17:59;22.90;41.10
15359;DHT22;7779;49.596;11.070;2023-05-19T13:20:26;22.90;40.90
15359;DHT22;7779;49.596;11.070;2023-05-19T13:22:52;23.00;40.60
15359;DHT22;7779;49.596;11.070;2023-05-19T13:25:18;23.10;40.30
15359;DHT22;7779;49.596;11.070;2023-05-19T13:27:44;23.10;40.10
15359;DHT22;7779;49.596;11.070;2023-05-19T13:30:11;23.10;39.90
15359;DHT22;7779;49.596;11.070;2023-05-19T13:32:37;23.20;39.90
15359;DHT22;7779;49.596;11.070;2023-05-19T13:35:03;23.20;39.80
15359;DHT22;7779;49.596;11.070;2023-05-19T13:37:29;23.20;39.60
15359;DHT22;7779;49.596;11.070;2023-05-19T13:39:55;23.30;39.80
15359;DHT22;7779;49.596;11.070;2023-05-19T13:42:22;23.30;39.80
15359;DHT22;7779;49.596;11.070;2023-05-19T13:44:48;23.40;39.80
15359;DHT22;7779;49.596;11.070;2023-05-19T13:47:14;23.50;39.70
15359;DHT22;7779;49.596;11.070;2023-05-19T13:49:40;23.50;39.50
15359;DHT22;7779;49.596;11.070;2023-05-19T13:52:06;23.50;39.40
15359;DHT22;7779;49.596;11.070;2023-05-19T13:54:32;23.60;39.30
15359;DHT22;7779;49.596;11.070;2023-05-19T13:56:58;23.70;39.00
15359;DHT22;7779;49.596;11.070;2023-05-19T13:59:25;23.70;38.90
15359;DHT22;7779;49.596;11.070;2023-05-19T14:01:50;23.80;39.00
15359;DHT22;7779;49.596;11.070;2023-05-19T14:04:17;23.80;38.80
15359;DHT22;7779;49.596;11.070;2023-05-19T14:06:43;23.90;38.80
15359;DHT22;7779;49.596;11.070;2023-05-19T14:09:09;23.90;39.20
15359;DHT22;7779;49.596;11.070;2023-05-19T14:11:35;23.90;38.30
15359;DHT22;7779;49.596;11.070;2023-05-19T14:14:01;23.90;38.40
15359;DHT22;7779;49.596;11.070;2023-05-19T14:16:30;23.90;38.40
15359;DHT22;7779;49.596;11.070;2023-05-19T14:18:56;23.80;38.30
15359;DHT22;7779;49.596;11.070;2023-05-19T14:21:22;23.80;38.20
15359;DHT22;7779;49.596;11.070;2023-05-19T14:23:47;23.80;38.20
15359;DHT22;7779;49.596;11.070;2023-05-19T14:26:13;23.70;38.10
15359;DHT22;7779;49.596;11.070;2023-05-19T14:28:39;23.70;38.10
15359;DHT22;7779;49.596;11.070;2023-05-19T14:31:05;23.70;38.10
15359;DHT22;7779;49.596;11.070;2023-05-19T14:33:31;23.70;38.10
15359;DHT22;7779;49.596;11.070;2023-05-19T14:35:57;23.70;38.10
15359;DHT22;7779;49.596;11.070;2023-05-19T14:38:25;23.50;38.00
15359;DHT22;7779;49.596;11.070;2023-05-19T14:40:51;23.50;38.10
15359;DHT22;7779;49.596;11.070;2023-05-19T14:43:16;23.40;38.10
15359;DHT22;7779;49.596;11.070;2023-05-19T14:45:43;23.50;37.20
15359;DHT22;7779;49.596;11.070;2023-05-19T14:48:09;23.40;38.00
15359;DHT22;7779;49.596;11.070;2023-05-19T14:50:37;23.40;38.10
15359;DHT22;7779;49.596;11.070;2023-05-19T14:53:03;23.30;38.20
15359;DHT22;7779;49.596;11.070;2023-05-19T14:55:29;23.20;38.20
15359;DHT22;7779;49.596;11.070;2023-05-19T14:57:55;23.20;38.30
15359;DHT22;7779;49.596;11.070;2023-05-19T15:00:21;23.20;38.40
15359;DHT22;7779;49.596;11.070;2023-05-19T15:02:47;23.20;38.60
15359;DHT22;7779;49.596;11.070;2023-05-19T15:05:14;23.10;38.50
15359;DHT22;7779;49.596;11.070;2023-05-19T15:07:39;23.10;38.50
15359;DHT22;7779;49.596;11.070;2023-05-19T15:10:05;23.00;38.40
15359;DHT22;7779;49.596;11.070;2023-05-19T15:12:31;23.00;38.30
15359;DHT22;7779;49.596;11.070;2023-05-19T15:14:57;22.90;38.30
15359;DHT22;7779;49.596;11.070;2023-05-19T15:17:23;22.90;38.50
15359;DHT22;7779;49.596;11.070;2023-05-19T15:19:48;22.90;38.60
15359;DHT22;7779;49.596;11.070;2023-05-19T15:22:14;22.90;38.80
15359;DHT22;7779;49.596;11.070;2023-05-19T15:24:40;22.80;38.70
15359;DHT22;7779;49.596;11.070;2023-05-19T15:27:06;22.80;38.80
15359;DHT22;7779;49.596;11.070;2023-05-19T15:29:32;22.80;38.80
15359;DHT22;7779;49.596;11.070;2023-05-19T15:31:59;22.80;38.30
15359;DHT22;7779;49.596;11.070;2023-05-19T15:34:24;22.70;39.50
15359;DHT22;7779;49.596;11.070;2023-05-19T15:36:50;22.70;39.00
15359;DHT22;7779;49.596;11.070;2023-05-19T15:39:16;22.70;39.10
15359;DHT22;7779;49.596;11.070;2023-05-19T15:41:42;22.70;39.10
15359;DHT22;7779;49.596;11.070;2023-05-19T15:44:09;22.60;39.10
15359;DHT22;7779;49.596;11.070;2023-05-19T15:46:34;22.60;39.20
15359;DHT22;7779;49.596;11.070;2023-05-19T15:49:00;22.50;39.30
15359;DHT22;7779;49.596;11.070;2023-05-19T15:51:26;22.50;39.40
15359;DHT22;7779;49.596;11.070;2023-05-19T15:53:52;22.50;39.60
15359;DHT22;7779;49.596;11.070;2023-05-19T15:56:18;22.50;39.80
15359;DHT22;7779;49.596;11.070;2023-05-19T15:58:44;22.50;39.80
15359;DHT22;7779;49.596;11.070;2023-05-19T16:01:10;22.40;39.80
15359;DHT22;7779;49.596;11.070;2023-05-19T16:03:36;22.40;39.90
15359;DHT22;7779;49.596;11.070;2023-05-19T16:06:02;22.40;40.00
15359;DHT22;7779;49.596;11.070;2023-05-19T16:08:28;22.40;40.00
15359;DHT22;7779;49.596;11.070;2023-05-19T16:10:54;22.30;40.00